This is the latest recevied weather packets stored in our database for station/object KY4GW. If no packets are shown the sender has not sent any weather packets the latest 10 day(s).
| Time | Temp. | Humidity | Pressure | Rain* | Wind** | Luminosity | Snow |
|---|---|---|---|---|---|---|---|
| 1777690916 | 5° C | 89% | 1020.1 hPa | 0 mm | - | 0 W/m² | - |
| 1777690613 | 5.56° C | 89% | 1020.1 hPa | 0 mm | - | 0 W/m² | - |
| 1777690311 | 5.56° C | 89% | 1020.1 hPa | 0 mm | - | 0 W/m² | - |
| 1777690008 | 5.56° C | 86% | 1020.1 hPa | 0 mm | - | 0 W/m² | - |
| 1777689706 | 5.56° C | 86% | 1020.4 hPa | 0 mm | - | 0 W/m² | - |
| 1777689404 | 5.56° C | 85% | 1020.4 hPa | 0 mm | - | 0 W/m² | - |
| 1777689101 | 6.11° C | 85% | 1020.4 hPa | 0 mm | - | 0 W/m² | - |
| 1777688798 | 6.11° C | 84% | 1020.4 hPa | 0 mm | - | 0 W/m² | - |
| 1777673043 | 13.33° C | 54% | 1017.3 hPa | 0 mm | - | 117 W/m² | - |
| 1777671826 | 13.89° C | 54% | 1017.3 hPa | 0 mm | - | 118 W/m² | - |
| 1777671522 | 13.89° C | 54% | 1017.3 hPa | 0 mm | - | 174 W/m² | - |
| 1777671219 | 13.89° C | 54% | 1017.3 hPa | 0 mm | - | 156 W/m² | - |
| 1777670611 | 13.89° C | 50% | 1016.9 hPa | 0 mm | - | 161 W/m² | - |
| 1777670006 | 14.44° C | 51% | 1017.3 hPa | 0 mm | - | 156 W/m² | - |
| 1777669706 | 14.44° C | 49% | 1017.3 hPa | 0 mm | - | 199 W/m² | - |
| 1777669400 | 13.89° C | 52% | 1017.3 hPa | 0 mm | - | 601 W/m² | - |
| 1777668187 | 13.89° C | 54% | 1016.9 hPa | 0 mm | - | 127 W/m² | - |
| 1777667883 | 15° C | 51% | 1016.9 hPa | 0 mm | - | 128 W/m² | - |
| 1777667277 | 15° C | 52% | 1016.9 hPa | 0 mm | - | 282 W/m² | - |
| 1777666974 | 14.44° C | 50% | 1016.9 hPa | 0 mm | - | 205 W/m² | - |
| 1777666671 | 15° C | 53% | 1016.9 hPa | 0 mm | - | 217 W/m² | - |
| 1777666064 | 15° C | 52% | 1016.9 hPa | 0 mm | - | 740 W/m² | - |
| 1777665155 | 15.56° C | 49% | 1016.9 hPa | 0 mm | - | 769 W/m² | - |
| 1777664547 | 15° C | 49% | 1016.9 hPa | 0 mm | - | 217 W/m² | - |
| 1777664243 | 15.56° C | 50% | 1016.9 hPa | 0 mm | - | 328 W/m² | - |
* Rain latest hour (hover to see other rain measurements)
** Current wind speed in m/s (hover to see current wind gust speed)